CYMH

Mary's Harbour Airport

Airport
ICAO code
CYMH
IATA Code
YMH
Summary
ICAO Region
NAM
ICAO Territory
Location

Mary's Harbour, Labrador

Serving
Mary's Harbour
Elevation
38 ft
Coordinates
52° 18' 10" N , 55° 50' 50" W
KCC
Metar
Observation
CYMH 280300Z AUTO 27008G16KT 9SM BKN029 01/M02 A2939 RMK SLP954
Station
Mary's Harbour
Date/Time
2022-11-28 03:00:00
Wind direction
270°
Wind speed
08 kts
Lowest cloud amount
broken clouds
Temperature
1°C
Dew point
-2°C
Humidity
80%
Weather condition
n/a

Description

Newfoundland and Labrador is home to a variety of climates and weather. One of the main reasons for this diversity is the geography of the province. The island portion of the province spans 5 degrees of latitude, which is comparable to that of the Great Lakes. The province has been divided into six climate types, but in broader terms Newfoundland has a cool summer subtype of a humid continental climate, which is greatly influenced by the sea since no part of the island is more than 100 km from the ocean. Northern Labrador is classified as a polar tundra climate, southern Labrador has a subarctic climate.

Climatology

Subarctic climate (Köppen climate classification Dfb) - long, usually very cold winters, and short, cool to mild summers.

Runways

Designator Length Width Surface Rops
11/29 762 23 GRAVEL No/No

Airport map

Aerial View

SKYbrary Partners:

Safety knowledge contributed by: